createdAt,value
2016-11-12T00:00:01.746Z,45.65
2016-11-12T00:00:42.519Z,45.36
2016-11-12T00:01:23.232Z,45.55
2016-11-12T00:02:04.056Z,45.67
2016-11-12T00:02:44.719Z,45.67
2016-11-12T00:03:25.373Z,45.75
2016-11-12T00:04:06.042Z,45.65
2016-11-12T00:04:46.766Z,45.84
2016-11-12T00:05:27.513Z,45.84
2016-11-12T00:06:08.283Z,45.76
2016-11-12T00:06:49.007Z,45.76
2016-11-12T00:07:29.723Z,45.84
2016-11-12T00:08:10.361Z,46.03
2016-11-12T00:08:51.119Z,45.84
2016-11-12T00:09:31.888Z,45.86
2016-11-12T00:10:12.587Z,45.65
2016-11-12T00:10:53.282Z,45.75
2016-11-12T00:11:33.952Z,45.57
2016-11-12T00:12:14.644Z,45.55
2016-11-12T00:12:55.430Z,45.55
2016-11-12T00:13:36.282Z,45.75
2016-11-12T00:14:17.002Z,45.65
2016-11-12T00:14:57.711Z,45.45
2016-11-12T00:15:38.412Z,45.65
2016-11-12T00:16:19.164Z,45.75
2016-11-12T00:16:59.772Z,45.84
2016-11-12T00:17:40.520Z,45.84
2016-11-12T00:18:22.057Z,46.13
2016-11-12T00:19:01.983Z,45.84
2016-11-12T00:19:42.659Z,45.84
2016-11-12T00:20:23.360Z,45.94
2016-11-12T00:21:04.121Z,45.75
2016-11-12T00:21:44.780Z,45.94
2016-11-12T00:22:25.564Z,45.94
2016-11-12T00:23:06.313Z,46.13
2016-11-12T00:23:47.039Z,46.33
2016-11-12T00:24:27.718Z,46.42
2016-11-12T00:25:08.460Z,46.51
2016-11-12T00:25:49.190Z,46.78
2016-11-12T00:26:29.866Z,46.88
2016-11-12T00:27:10.493Z,46.78
2016-11-12T00:27:51.099Z,46.97
2016-11-12T00:28:31.880Z,46.78
2016-11-12T00:29:12.542Z,47.07
2016-11-12T00:29:53.215Z,46.88
2016-11-12T00:30:33.910Z,46.78
2016-11-12T00:31:14.502Z,47.17
2016-11-12T00:31:55.178Z,46.97
2016-11-12T00:32:35.894Z,46.88
2016-11-12T00:33:16.603Z,47.65
2016-11-12T00:33:57.267Z,47.17
2016-11-12T00:34:37.979Z,47.17
2016-11-12T00:35:18.718Z,47.55
2016-11-12T00:35:59.426Z,47.65
2016-11-12T00:36:40.118Z,47.45
2016-11-12T00:37:20.765Z,47.65
2016-11-12T00:38:01.426Z,47.45
2016-11-12T00:38:42.146Z,47.36
2016-11-12T00:39:22.720Z,47.36
2016-11-12T00:40:03.376Z,47.27
2016-11-12T00:40:44.054Z,47.55
2016-11-12T00:41:24.758Z,47.27
2016-11-12T00:42:05.344Z,47.45
2016-11-12T00:42:46.036Z,47.27
2016-11-12T00:43:26.612Z,47.55
2016-11-12T00:44:07.246Z,47.36
2016-11-12T00:44:47.854Z,47.65
2016-11-12T00:45:28.528Z,47.27
2016-11-12T00:46:09.228Z,47.65
2016-11-12T00:46:49.914Z,47.55
2016-11-12T00:47:30.604Z,47.75
2016-11-12T00:48:11.322Z,46.97
2016-11-12T00:48:51.925Z,46.97
2016-11-12T00:49:32.664Z,47.55
2016-11-12T00:50:13.326Z,46.97
2016-11-12T00:50:54.020Z,46.69
2016-11-12T00:52:41.509Z,46.78
2016-11-12T00:53:22.190Z,46.81
2016-11-12T00:54:02.811Z,46.81
2016-11-12T00:54:43.458Z,46.81
2016-11-12T00:55:24.146Z,46.81
2016-11-12T00:56:04.864Z,47.09
2016-11-12T00:56:45.509Z,46.61
2016-11-12T00:57:26.180Z,46.42
2016-11-12T00:59:45.129Z,46.9
2016-11-12T01:00:25.814Z,46.61
2016-11-12T01:01:06.489Z,46.71
2016-11-12T01:01:47.161Z,46.81
2016-11-12T01:02:27.994Z,46.4
2016-11-12T01:03:08.723Z,46.61
2016-11-12T01:03:49.493Z,46.51
2016-11-12T01:04:30.133Z,46.71
2016-11-12T01:05:10.714Z,46.71
2016-11-12T01:05:51.318Z,46.78
2016-11-12T01:06:32.016Z,46.81
2016-11-12T01:07:12.690Z,46.51
2016-11-12T01:07:53.310Z,46.49
2016-11-12T01:08:33.930Z,46.81
2016-11-12T01:09:14.615Z,46.51
2016-11-12T01:09:55.307Z,46.78
2016-11-12T01:10:36.059Z,46.59
2016-11-12T01:11:16.796Z,46.2
2016-11-12T01:11:57.486Z,46.42
2016-11-12T01:12:38.258Z,46.4
2016-11-12T01:13:18.868Z,46.42
2016-11-12T01:13:59.489Z,46.88
2016-11-12T01:14:40.227Z,46.51
2016-11-12T01:15:20.915Z,46.71
2016-11-12T01:16:01.701Z,46.78
2016-11-12T01:16:42.347Z,46.88
2016-11-12T01:17:23.056Z,46.49
2016-11-12T01:18:03.749Z,46.4
2016-11-12T01:18:44.412Z,46.81
2016-11-12T01:19:25.122Z,46.88
2016-11-12T01:20:05.766Z,46.88
2016-11-12T01:20:46.374Z,46.69
2016-11-12T01:21:26.986Z,46.4
2016-11-12T01:22:07.716Z,46.59
2016-11-12T01:22:48.481Z,46.88
2016-11-12T01:23:29.230Z,46.78
2016-11-12T01:24:09.954Z,46.97
2016-11-12T01:24:50.521Z,46.88
2016-11-12T01:25:31.217Z,46.88
2016-11-12T01:26:11.931Z,46.78
2016-11-12T01:26:52.659Z,46.78
2016-11-12T01:27:33.335Z,46.78
2016-11-12T01:28:14.053Z,46.97
2016-11-12T01:28:54.731Z,46.69
2016-11-12T01:29:35.417Z,46.88
2016-11-12T01:30:15.986Z,46.97
2016-11-12T01:30:56.656Z,46.97
2016-11-12T01:31:37.336Z,46.59
2016-11-12T01:32:17.982Z,47.07
2016-11-12T01:32:58.704Z,46.88
2016-11-12T01:33:39.348Z,47.17
2016-11-12T01:34:20.011Z,47.17
2016-11-12T01:35:00.684Z,47.55
2016-11-12T01:35:41.314Z,46.97
2016-11-12T01:36:21.994Z,46.97
2016-11-12T01:37:02.680Z,46.97
2016-11-12T01:37:43.354Z,46.69
2016-11-12T01:38:23.994Z,47.07
2016-11-12T01:39:04.640Z,46.97
2016-11-12T01:39:45.284Z,47.07
2016-11-12T01:40:25.961Z,46.69
2016-11-12T01:41:06.639Z,46.69
2016-11-12T01:41:47.318Z,46.97
2016-11-12T01:42:27.977Z,46.88
2016-11-12T01:43:08.684Z,46.97
2016-11-12T01:43:49.344Z,46.88
2016-11-12T01:44:29.996Z,46.88
2016-11-12T01:45:10.645Z,46.97
2016-11-12T01:45:51.453Z,47.27
2016-11-12T01:46:32.135Z,46.97
2016-11-12T01:47:12.817Z,47.65
2016-11-12T01:47:53.533Z,47.27
2016-11-12T01:48:34.249Z,47.07
2016-11-12T01:49:14.868Z,46.69
2016-11-12T01:49:55.516Z,46.97
2016-11-12T01:50:36.175Z,47.65
2016-11-12T01:51:16.855Z,46.88
2016-11-12T01:51:57.488Z,47.17
2016-11-12T01:52:38.130Z,46.78
2016-11-12T01:53:18.707Z,46.88
2016-11-12T01:53:59.355Z,46.97
2016-11-12T01:54:39.988Z,46.97
2016-11-12T01:55:20.590Z,47.36
2016-11-12T01:56:01.188Z,47.36
2016-11-12T01:56:41.808Z,47.55
2016-11-12T01:57:22.650Z,47.17
2016-11-12T01:58:03.392Z,47.36
2016-11-12T01:58:44.052Z,47.55
2016-11-12T01:59:24.634Z,47.17
2016-11-12T02:00:05.340Z,47.17
2016-11-12T02:00:46.040Z,47.27
2016-11-12T02:01:26.740Z,47.85
2016-11-12T02:02:07.404Z,47.94
2016-11-12T02:02:48.116Z,47.55
2016-11-12T02:03:28.762Z,47.17
2016-11-12T02:04:09.470Z,47.36
2016-11-12T02:04:50.078Z,47.55
2016-11-12T02:05:30.773Z,47.17
2016-11-12T02:06:11.442Z,47.36
2016-11-12T02:06:52.116Z,47.36
2016-11-12T02:07:32.735Z,47.55
2016-11-12T02:08:13.346Z,47.65
2016-11-12T02:08:54.103Z,47.45
2016-11-12T02:09:34.652Z,47.55
2016-11-12T02:10:15.284Z,47.17
2016-11-12T02:10:55.910Z,47.55
2016-11-12T02:11:36.551Z,47.45
2016-11-12T02:12:17.201Z,47.27
2016-11-12T02:12:58.022Z,47.27
2016-11-12T02:13:38.726Z,47.55
2016-11-12T02:14:19.326Z,47.17
2016-11-12T02:15:00.018Z,47.27
2016-11-12T02:15:40.715Z,47.65
2016-11-12T02:16:21.337Z,47.44
2016-11-12T02:17:01.967Z,47.92
2016-11-12T02:17:42.675Z,47.63
2016-11-12T02:18:23.244Z,47.63
2016-11-12T02:19:03.849Z,47.53
2016-11-12T02:19:44.503Z,47.72
2016-11-12T02:20:25.187Z,48.11
2016-11-12T02:21:05.849Z,47.92
2016-11-12T02:21:46.511Z,47.92
2016-11-12T02:22:27.105Z,47.82
2016-11-12T02:23:07.754Z,47.92
2016-11-12T02:23:48.431Z,48.01
2016-11-12T02:24:29.091Z,48.4
2016-11-12T02:25:09.795Z,48.49
2016-11-12T02:25:50.441Z,48.49
2016-11-12T02:26:31.143Z,48.21
2016-11-12T02:27:11.821Z,48.38
2016-11-12T02:27:52.529Z,48.49
2016-11-12T02:28:33.222Z,48.76
2016-11-12T02:29:13.900Z,48.59
2016-11-12T02:29:54.623Z,48.38
2016-11-12T02:30:35.213Z,48.08
2016-11-12T02:31:15.885Z,48.57
2016-11-12T02:31:56.537Z,48.28
2016-11-12T02:32:37.106Z,48.28
2016-11-12T02:33:17.853Z,48.47
2016-11-12T02:33:58.528Z,48.49
2016-11-12T02:34:39.203Z,48.49
2016-11-12T02:35:19.876Z,48.59
2016-11-12T02:36:00.534Z,48.28
2016-11-12T02:36:41.188Z,48.4
2016-11-12T02:37:21.802Z,48.01
2016-11-12T02:38:02.394Z,48.01
2016-11-12T02:38:43.002Z,48.01
2016-11-12T02:39:23.727Z,48.3
2016-11-12T02:40:04.418Z,47.92
2016-11-12T02:40:45.092Z,48.21
2016-11-12T02:41:25.670Z,48.01
2016-11-12T02:42:06.287Z,48.4
2016-11-12T02:42:47.012Z,48.4
2016-11-12T02:43:27.630Z,48.4
2016-11-12T02:44:08.224Z,48.4
2016-11-12T02:44:48.860Z,48.49
2016-11-12T02:45:29.458Z,48.49
2016-11-12T02:46:10.114Z,48.3
2016-11-12T02:46:50.808Z,48.59
2016-11-12T02:47:31.494Z,47.82
2016-11-12T02:48:12.165Z,48.3
2016-11-12T02:48:52.812Z,48.21
2016-11-12T02:49:33.524Z,47.92
2016-11-12T02:50:14.198Z,48.11
2016-11-12T02:50:54.838Z,48.49
2016-11-12T02:51:35.392Z,48.01
2016-11-12T02:52:16.062Z,47.92
2016-11-12T02:52:56.633Z,47.92
2016-11-12T02:53:37.267Z,47.53
2016-11-12T02:54:17.895Z,47.92
2016-11-12T02:54:58.570Z,47.53
2016-11-12T02:55:39.258Z,47.72
2016-11-12T02:56:19.994Z,48.01
2016-11-12T02:57:00.569Z,47.82
2016-11-12T02:57:41.203Z,48.4
2016-11-12T02:58:21.947Z,48.03
2016-11-12T02:59:02.711Z,47.65
2016-11-12T02:59:43.399Z,47.63
2016-11-12T03:00:24.027Z,47.63
2016-11-12T03:01:04.691Z,47.92
2016-11-12T03:01:45.309Z,47.63
2016-11-12T03:02:25.919Z,47.82
2016-11-12T03:03:06.615Z,47.92
2016-11-12T03:03:47.275Z,48.49
2016-11-12T03:04:28.075Z,48.3
2016-11-12T03:05:08.649Z,47.92
2016-11-12T03:05:49.231Z,48.01
2016-11-12T03:06:29.905Z,47.92
2016-11-12T03:07:10.607Z,47.82
2016-11-12T03:07:51.257Z,47.63
2016-11-12T03:08:31.945Z,47.82
2016-11-12T03:09:12.707Z,47.92
2016-11-12T03:09:53.447Z,47.63
2016-11-12T03:10:34.045Z,47.92
2016-11-12T03:11:14.695Z,47.53
2016-11-12T03:11:55.331Z,47.82
2016-11-12T03:12:35.976Z,47.82
2016-11-12T03:13:16.617Z,47.82
2016-11-12T03:13:57.277Z,47.63
2016-11-12T03:14:37.901Z,47.72
2016-11-12T03:15:18.499Z,47.92
2016-11-12T03:15:59.201Z,47.82
2016-11-12T03:16:39.889Z,47.92
2016-11-12T03:17:20.449Z,47.53
2016-11-12T03:18:01.178Z,47.82
2016-11-12T03:18:41.850Z,47.92
2016-11-12T03:19:22.509Z,47.92
2016-11-12T03:20:03.128Z,47.82
2016-11-12T03:20:43.731Z,47.82
2016-11-12T03:21:24.303Z,47.82
2016-11-12T03:22:04.968Z,47.53
2016-11-12T03:22:45.602Z,47.72
2016-11-12T03:23:26.198Z,48.01
2016-11-12T03:24:06.868Z,48.01
2016-11-12T03:24:47.548Z,47.72
2016-11-12T03:25:28.216Z,47.92
2016-11-12T03:26:08.920Z,47.92
2016-11-12T03:26:49.530Z,47.82
2016-11-12T03:27:30.136Z,48.01
2016-11-12T03:28:10.777Z,48.11
2016-11-12T03:28:51.452Z,47.92
2016-11-12T03:29:32.132Z,47.82
2016-11-12T03:30:12.814Z,48.01
2016-11-12T03:30:53.394Z,47.92
2016-11-12T03:31:33.998Z,48.01
2016-11-12T03:32:14.670Z,48.01
2016-11-12T03:32:55.394Z,48.3
2016-11-12T03:33:36.116Z,48.11
2016-11-12T03:34:16.759Z,48.11
2016-11-12T03:34:57.480Z,47.82
2016-11-12T03:35:38.138Z,47.92
2016-11-12T03:36:18.880Z,48.01
2016-11-12T03:36:59.568Z,48.11
2016-11-12T03:37:40.296Z,48.01
2016-11-12T03:38:20.947Z,48.11
2016-11-12T03:39:01.782Z,47.92
2016-11-12T03:39:42.506Z,48.11
2016-11-12T03:40:23.190Z,48.11
2016-11-12T03:41:03.795Z,48.01
2016-11-12T03:41:44.509Z,48.4
2016-11-12T03:42:25.149Z,48.4
2016-11-12T03:43:05.879Z,48.3
2016-11-12T03:43:46.511Z,48.49
2016-11-12T03:44:27.255Z,48.01
2016-11-12T03:45:07.959Z,47.92
2016-11-12T03:45:48.640Z,48.01
2016-11-12T03:46:29.301Z,48.11
2016-11-12T03:47:09.978Z,48.01
2016-11-12T03:47:50.709Z,48.01
2016-11-12T03:48:31.391Z,48.21
2016-11-12T03:49:12.087Z,47.82
2016-11-12T03:49:52.797Z,48.01
2016-11-12T03:50:33.417Z,48.21
2016-11-12T03:51:14.079Z,47.92
2016-11-12T03:51:54.839Z,48.11
2016-11-12T03:52:35.559Z,47.53
2016-11-12T03:53:16.221Z,47.82
2016-11-12T03:53:56.989Z,47.72
2016-11-12T03:54:37.643Z,47.72
2016-11-12T03:55:18.467Z,47.92
2016-11-12T03:55:59.122Z,48.01
2016-11-12T03:56:39.757Z,48.11
2016-11-12T03:57:20.455Z,47.72
2016-11-12T03:58:01.140Z,47.82
2016-11-12T03:58:41.746Z,48.11
2016-11-12T03:59:22.342Z,48.01
2016-11-12T04:00:03.016Z,48.01
2016-11-12T04:00:43.621Z,48.11
2016-11-12T04:01:24.286Z,47.92
2016-11-12T04:02:04.856Z,47.92
2016-11-12T04:02:45.590Z,47.92
2016-11-12T04:03:26.207Z,48.21
2016-11-12T04:04:06.970Z,47.92
2016-11-12T04:04:47.698Z,47.92
2016-11-12T04:05:28.340Z,47.92
2016-11-12T04:06:08.976Z,48.01
2016-11-12T04:06:49.662Z,47.82
2016-11-12T04:07:30.289Z,47.92
2016-11-12T04:08:11.000Z,47.53
2016-11-12T04:08:51.729Z,47.92
2016-11-12T04:09:32.585Z,47.82
2016-11-12T04:10:13.287Z,47.53
2016-11-12T04:10:54.019Z,47.72
2016-11-12T04:11:34.671Z,47.82
2016-11-12T04:12:15.371Z,47.92
2016-11-12T04:12:55.968Z,48.11
2016-11-12T04:13:36.647Z,48.3
2016-11-12T04:14:17.383Z,48.01
2016-11-12T04:14:58.060Z,47.92
2016-11-12T04:15:38.719Z,47.63
2016-11-12T04:16:19.415Z,48.11
2016-11-12T04:17:00.082Z,48.01
2016-11-12T04:17:40.780Z,48.01
2016-11-12T04:18:21.418Z,47.92
2016-11-12T04:19:02.097Z,47.92
2016-11-12T04:19:42.772Z,48.01
2016-11-12T04:20:23.418Z,47.82
2016-11-12T04:21:04.046Z,47.92
2016-11-12T04:21:44.759Z,47.72
2016-11-12T04:22:25.450Z,48.4
2016-11-12T04:23:06.157Z,47.72
2016-11-12T04:23:46.832Z,48.01
2016-11-12T04:24:27.595Z,48.21
2016-11-12T04:25:08.325Z,48.4
2016-11-12T04:25:48.998Z,47.92
2016-11-12T04:26:29.667Z,48.21
2016-11-12T04:27:10.393Z,47.92
2016-11-12T04:27:50.989Z,47.82
2016-11-12T04:28:31.609Z,47.92
2016-11-12T04:29:12.359Z,48.01
2016-11-12T04:29:53.003Z,47.92
2016-11-12T04:30:33.649Z,47.92
2016-11-12T04:31:14.324Z,48.3
2016-11-12T04:31:55.039Z,47.92
2016-11-12T04:32:35.760Z,47.82
2016-11-12T04:33:16.619Z,48.49
2016-11-12T04:33:57.280Z,47.82
2016-11-12T04:34:38.021Z,48.01
2016-11-12T04:35:18.596Z,48.79
2016-11-12T04:35:59.196Z,48.59
2016-11-12T04:36:39.816Z,47.92
2016-11-12T04:37:20.402Z,48.01
2016-11-12T04:38:01.096Z,48.49
2016-11-12T04:38:41.780Z,48.4
2016-11-12T04:39:22.388Z,48.59
2016-11-12T04:40:03.067Z,48.49
2016-11-12T04:40:43.751Z,48.59
2016-11-12T04:41:24.465Z,48.59
2016-11-12T04:42:05.202Z,48.4
2016-11-12T04:42:45.894Z,48.4
2016-11-12T04:43:26.524Z,48.59
2016-11-12T04:44:07.109Z,47.82
2016-11-12T04:44:47.784Z,47.92
2016-11-12T04:45:28.511Z,48.11
2016-11-12T04:46:09.215Z,48.69
2016-11-12T04:46:49.847Z,47.92
2016-11-12T04:47:30.679Z,47.82
2016-11-12T04:48:11.373Z,48.49
2016-11-12T04:48:52.076Z,47.82
2016-11-12T04:49:32.667Z,48.01
2016-11-12T04:50:13.319Z,47.92
2016-11-12T04:50:54.049Z,48.69
2016-11-12T04:51:34.741Z,47.92
2016-11-12T04:52:15.377Z,48.01
2016-11-12T04:52:56.207Z,47.72
2016-11-12T04:53:36.888Z,48.49
2016-11-12T04:54:17.485Z,48.69
2016-11-12T04:54:58.146Z,48.3
2016-11-12T04:55:38.820Z,48.49
2016-11-12T04:56:19.537Z,48.4
2016-11-12T04:57:00.176Z,48.49
2016-11-12T04:57:40.837Z,48.4
2016-11-12T04:58:21.467Z,44.62
2016-11-12T04:59:02.227Z,37.68
2016-11-12T04:59:42.869Z,34.11
2016-11-12T05:00:24.319Z,33.71
2016-11-12T05:01:04.338Z,34.66
2016-11-12T05:01:45.060Z,38.22
2016-11-12T05:02:25.760Z,38.99
2016-11-12T05:03:06.424Z,40.84
2016-11-12T05:03:47.080Z,41.49
2016-11-12T05:04:27.739Z,41.71
2016-11-12T05:05:08.435Z,42.19
2016-11-12T05:05:49.098Z,42.84
2016-11-12T05:06:29.698Z,43.61
2016-11-12T05:07:10.340Z,43.99
2016-11-12T05:07:51.038Z,44.4
2016-11-12T05:08:31.614Z,44.28
2016-11-12T05:09:12.326Z,44.86
2016-11-12T05:09:53.128Z,44.86
2016-11-12T05:10:33.808Z,45.15
2016-11-12T05:11:14.463Z,45.34
2016-11-12T05:11:55.062Z,45.73
2016-11-12T05:12:35.704Z,45.73
2016-11-12T05:13:16.390Z,45.83
2016-11-12T05:13:57.080Z,46.01
2016-11-12T05:14:37.763Z,46.01
2016-11-12T05:15:18.409Z,46.21
2016-11-12T05:15:58.985Z,46.4
2016-11-12T05:16:39.739Z,46.4
2016-11-12T05:17:20.387Z,46.11
2016-11-12T05:18:00.984Z,46.59
2016-11-12T05:18:41.613Z,46.5
2016-11-12T05:19:22.227Z,46.88
2016-11-12T05:21:40.221Z,47.17
2016-11-12T05:23:32.788Z,47.65
2016-11-12T05:24:13.457Z,47.65
2016-11-12T05:24:54.252Z,47.94
2016-11-12T05:25:34.880Z,47.56
2016-11-12T05:26:15.552Z,47.94
2016-11-12T05:26:56.272Z,47.85
2016-11-12T05:27:36.973Z,48.33
2016-11-12T05:28:17.616Z,47.75
2016-11-12T05:28:58.228Z,47.75
2016-11-12T05:29:38.902Z,47.75
2016-11-12T05:30:19.546Z,48.43
2016-11-12T05:31:00.236Z,48.43
2016-11-12T05:31:40.948Z,48.52
2016-11-12T05:32:21.646Z,48.33
2016-11-12T05:33:02.454Z,48.43
2016-11-12T05:33:43.762Z,48.43
2016-11-12T05:34:24.465Z,48.43
2016-11-12T05:35:05.080Z,48.43
2016-11-12T05:35:45.732Z,48.52
2016-11-12T05:36:26.338Z,48.52
2016-11-12T05:37:07.014Z,48.23
2016-11-12T05:37:47.756Z,48.33
2016-11-12T05:38:28.436Z,48.61
2016-11-12T05:39:09.223Z,48.43
2016-11-12T05:39:49.913Z,48.71
2016-11-12T05:40:30.559Z,48.3
2016-11-12T05:41:11.218Z,48.52
2016-11-12T05:41:51.897Z,48.69
2016-11-12T05:42:32.539Z,49.27
2016-11-12T05:43:13.161Z,48.49
2016-11-12T05:43:53.865Z,48.88
2016-11-12T05:44:34.531Z,49.07
2016-11-12T05:45:15.235Z,49.19
2016-11-12T05:45:56.067Z,48.97
2016-11-12T05:46:36.840Z,48.88
2016-11-12T05:47:17.448Z,48.9
2016-11-12T05:47:58.067Z,48.88
2016-11-12T05:48:38.761Z,48.97
2016-11-12T05:49:19.399Z,48.97
2016-11-12T05:49:59.997Z,48.88
2016-11-12T05:50:40.609Z,48.88
2016-11-12T05:51:21.207Z,48.97
2016-11-12T05:52:01.878Z,48.97
2016-11-12T05:52:42.568Z,48.88
2016-11-12T05:53:23.297Z,49.07
2016-11-12T05:54:03.941Z,48.97
2016-11-12T05:54:44.511Z,49.46
2016-11-12T05:55:25.149Z,49.46
2016-11-12T05:56:06.451Z,49.36
2016-11-12T05:56:46.391Z,49.07
2016-11-12T05:57:27.051Z,49.36
2016-11-12T05:58:07.677Z,49.27
2016-11-12T05:58:48.423Z,49.36
2016-11-12T05:59:29.092Z,49.27
2016-11-12T06:00:09.809Z,49.36
2016-11-12T06:00:50.415Z,49.07
2016-11-12T06:01:31.075Z,49.36
2016-11-12T06:02:11.702Z,49.65
2016-11-12T06:02:52.336Z,49.65
2016-11-12T06:03:32.952Z,49.55
2016-11-12T06:04:13.576Z,49.36
2016-11-12T06:04:54.214Z,49.74
2016-11-12T06:05:34.842Z,49.65
2016-11-12T06:06:15.528Z,49.74
2016-11-12T06:06:56.152Z,49.74
2016-11-12T06:07:36.818Z,49.84
2016-11-12T06:08:17.434Z,49.74
2016-11-12T06:08:58.220Z,49.74
2016-11-12T06:09:38.840Z,49.84
2016-11-12T06:10:19.498Z,49.46
2016-11-12T06:11:00.957Z,49.74
2016-11-12T06:11:40.820Z,49.65
2016-11-12T06:12:21.488Z,49.65
2016-11-12T06:13:02.153Z,49.94
2016-11-12T06:13:42.769Z,49.84
2016-11-12T06:14:23.453Z,49.84
2016-11-12T06:15:04.088Z,50.04
2016-11-12T06:15:44.690Z,50.13
2016-11-12T06:16:25.349Z,49.84
2016-11-12T06:17:05.988Z,50.23
2016-11-12T06:17:46.639Z,50.04
2016-11-12T06:18:27.292Z,50.04
2016-11-12T06:19:07.973Z,49.94
2016-11-12T06:19:48.611Z,49.94
2016-11-12T06:20:29.339Z,50.71
2016-11-12T06:21:10.001Z,50.04
2016-11-12T06:21:50.681Z,50.42
2016-11-12T06:22:31.351Z,50.51
2016-11-12T06:23:12.079Z,50.42
2016-11-12T06:23:52.663Z,50.42
2016-11-12T06:24:33.364Z,50.71
2016-11-12T06:25:14.086Z,50.32
2016-11-12T06:25:54.739Z,50.51
2016-11-12T06:26:35.481Z,50.42
2016-11-12T06:27:16.140Z,50.42
2016-11-12T06:27:56.801Z,50.71
2016-11-12T06:28:37.477Z,50.51
2016-11-12T06:29:18.168Z,50.71
2016-11-12T06:29:58.867Z,50.42
2016-11-12T06:30:39.530Z,50.42
2016-11-12T06:31:20.220Z,50.51
2016-11-12T06:32:00.936Z,50.61
2016-11-12T06:32:41.652Z,50.32
2016-11-12T06:33:22.254Z,50.71
2016-11-12T06:34:03.028Z,50.42
2016-11-12T06:34:43.842Z,50.32
2016-11-12T06:35:24.528Z,50.32
2016-11-12T06:36:05.210Z,50.61
2016-11-12T06:36:45.824Z,50.51
2016-11-12T06:37:26.418Z,50.81
2016-11-12T06:38:07.030Z,50.71
2016-11-12T06:38:47.680Z,50.71
2016-11-12T06:39:28.346Z,50.81
2016-11-12T06:40:09.008Z,50.61
2016-11-12T06:40:49.639Z,50.9
2016-11-12T06:41:30.337Z,50.71
2016-11-12T06:42:10.979Z,50.71
2016-11-12T06:42:51.630Z,50.61
2016-11-12T06:43:32.230Z,50.9
2016-11-12T06:44:13.471Z,50.9
2016-11-12T06:44:53.619Z,50.81
2016-11-12T06:45:34.295Z,50.81
2016-11-12T06:46:14.983Z,50.99
2016-11-12T06:46:55.701Z,50.99
2016-11-12T06:47:36.305Z,51.09
2016-11-12T06:48:16.969Z,50.81
2016-11-12T06:48:57.573Z,50.9
2016-11-12T06:49:38.293Z,50.9
2016-11-12T06:50:19.020Z,50.78
2016-11-12T06:50:59.583Z,50.97
2016-11-12T06:51:40.215Z,50.97
2016-11-12T06:52:20.928Z,50.87
2016-11-12T06:54:38.953Z,51.17
2016-11-12T06:55:19.722Z,50.97
2016-11-12T06:56:00.541Z,51.29
2016-11-12T06:56:41.288Z,51.17
2016-11-12T06:57:21.993Z,50.68
2016-11-12T06:58:02.673Z,50.87
2016-11-12T06:58:43.349Z,51.17
2016-11-12T06:59:24.080Z,51.17
2016-11-12T07:00:04.888Z,51.45
2016-11-12T07:00:45.601Z,51.17
2016-11-12T07:01:26.362Z,51.26
2016-11-12T07:02:07.127Z,51.17
2016-11-12T07:02:48.574Z,51.17
2016-11-12T07:03:28.408Z,51.26
2016-11-12T07:04:09.106Z,51.17
2016-11-12T07:04:49.744Z,51.26
2016-11-12T07:05:30.502Z,51.26
2016-11-12T07:06:11.206Z,51.07
2016-11-12T07:06:51.840Z,51.35
2016-11-12T07:07:32.478Z,51.35
2016-11-12T07:08:13.118Z,51.35
2016-11-12T07:08:53.828Z,51.26
2016-11-12T07:09:34.538Z,51.35
2016-11-12T07:10:15.421Z,51.45
2016-11-12T07:10:56.065Z,51.45
2016-11-12T07:11:36.752Z,51.45
2016-11-12T07:12:17.347Z,51.35
2016-11-12T07:12:58.095Z,51.55
2016-11-12T07:13:38.812Z,51.55
2016-11-12T07:14:19.540Z,51.93
2016-11-12T07:15:00.229Z,51.45
2016-11-12T07:15:40.913Z,51.45
2016-11-12T07:16:21.631Z,51.93
2016-11-12T07:17:02.471Z,51.93
2016-11-12T07:17:43.142Z,51.35
2016-11-12T07:18:23.783Z,51.74
2016-11-12T07:19:04.499Z,51.84
2016-11-12T07:19:45.179Z,51.64
2016-11-12T07:20:25.951Z,51.74
2016-11-12T07:21:06.671Z,52.03
2016-11-12T07:21:47.409Z,51.26
2016-11-12T07:22:28.085Z,52.03
2016-11-12T07:23:08.824Z,52.03
2016-11-12T07:23:49.524Z,52.03
2016-11-12T07:24:30.312Z,51.45
2016-11-12T07:25:10.980Z,51.84
2016-11-12T07:25:51.702Z,51.84
2016-11-12T07:26:32.420Z,51.74
2016-11-12T07:27:13.219Z,51.74
2016-11-12T07:27:53.904Z,51.55
2016-11-12T07:28:34.524Z,51.45
2016-11-12T07:29:15.205Z,51.35
2016-11-12T07:29:55.914Z,51.45
2016-11-12T07:30:36.648Z,51.35
2016-11-12T07:31:17.254Z,51.55
2016-11-12T07:31:57.934Z,51.35
2016-11-12T07:32:38.570Z,51.55
2016-11-12T07:33:19.159Z,51.74
2016-11-12T07:33:59.839Z,51.84
2016-11-12T07:34:40.527Z,51.84
2016-11-12T07:35:21.200Z,51.84
2016-11-12T07:36:01.895Z,51.74
2016-11-12T07:36:42.564Z,51.84
2016-11-12T07:37:23.227Z,51.93
2016-11-12T07:38:03.921Z,52.03
2016-11-12T07:38:44.576Z,52.03
2016-11-12T07:39:25.299Z,52.03
2016-11-12T07:40:06.034Z,52.03
2016-11-12T07:40:46.795Z,52.03
2016-11-12T07:41:27.605Z,52.03
2016-11-12T07:42:08.294Z,52.03
2016-11-12T07:42:49.019Z,52.03
2016-11-12T07:43:29.637Z,52.03
2016-11-12T07:44:10.259Z,51.74
2016-11-12T07:44:50.994Z,51.93
2016-11-12T07:45:31.649Z,51.93
2016-11-12T07:46:12.261Z,51.84
2016-11-12T07:46:52.909Z,51.93
2016-11-12T07:47:33.672Z,51.93
2016-11-12T07:48:14.309Z,51.93
2016-11-12T07:48:54.888Z,52.03
2016-11-12T07:49:35.528Z,51.93
2016-11-12T07:50:16.086Z,52.03
2016-11-12T07:50:56.714Z,51.84
2016-11-12T07:51:37.400Z,51.93
2016-11-12T07:52:18.008Z,51.93
2016-11-12T07:52:58.622Z,51.93
2016-11-12T07:53:39.267Z,51.93
2016-11-12T07:54:19.866Z,51.93
2016-11-12T07:55:00.498Z,51.93
2016-11-12T07:55:41.204Z,51.55
2016-11-12T07:56:21.892Z,51.93
2016-11-12T07:57:02.609Z,51.93
2016-11-12T07:57:43.340Z,51.84
2016-11-12T07:58:24.084Z,51.74
2016-11-12T07:59:04.721Z,51.93
2016-11-12T07:59:45.348Z,51.93
2016-11-12T08:00:26.044Z,51.84
2016-11-12T08:01:06.749Z,51.84
2016-11-12T08:01:47.539Z,51.93
2016-11-12T08:02:28.235Z,51.93
2016-11-12T08:03:08.967Z,51.93
2016-11-12T08:03:49.565Z,51.93
2016-11-12T08:04:30.375Z,51.84
2016-11-12T08:05:11.062Z,51.93
2016-11-12T08:05:52.630Z,51.84
2016-11-12T08:06:33.295Z,51.64
2016-11-12T08:07:13.953Z,51.45
2016-11-12T08:07:54.613Z,51.74
2016-11-12T08:08:35.191Z,51.45
2016-11-12T08:09:15.900Z,51.55
2016-11-12T08:09:56.680Z,51.74
2016-11-12T08:10:37.407Z,51.45
2016-11-12T08:11:18.059Z,51.55
2016-11-12T08:11:58.809Z,51.45
2016-11-12T08:12:39.520Z,51.55
2016-11-12T08:13:20.231Z,51.55
2016-11-12T08:14:00.804Z,51.55
2016-11-12T08:14:41.500Z,51.55
2016-11-12T08:15:22.235Z,51.64
2016-11-12T08:16:02.959Z,51.84
2016-11-12T08:16:43.690Z,51.45
2016-11-12T08:17:24.344Z,51.74
2016-11-12T08:18:04.954Z,51.45
2016-11-12T08:18:45.699Z,51.74
2016-11-12T08:19:26.442Z,51.45
2016-11-12T08:20:07.077Z,51.84
2016-11-12T08:20:47.790Z,51.55
2016-11-12T08:21:28.438Z,51.55
2016-11-12T08:22:09.050Z,51.74
2016-11-12T08:22:49.768Z,51.55
2016-11-12T08:23:30.479Z,51.64
2016-11-12T08:24:11.074Z,51.64
2016-11-12T08:24:51.795Z,51.55
2016-11-12T08:25:32.510Z,51.55
2016-11-12T08:26:13.223Z,51.45
2016-11-12T08:26:53.916Z,51.64
2016-11-12T08:27:34.663Z,51.55
2016-11-12T08:28:15.299Z,51.93
2016-11-12T08:28:55.968Z,51.55
2016-11-12T08:29:36.789Z,51.64
2016-11-12T08:30:17.393Z,51.74
2016-11-12T08:30:58.227Z,51.64
2016-11-12T08:31:38.963Z,51.64
2016-11-12T08:32:19.603Z,51.55
2016-11-12T08:33:00.281Z,51.74
2016-11-12T08:33:40.895Z,51.74
2016-11-12T08:34:21.593Z,51.55
2016-11-12T08:35:02.229Z,51.93
2016-11-12T08:35:42.901Z,51.93
2016-11-12T08:36:23.618Z,51.93
2016-11-12T08:37:04.373Z,51.55
2016-11-12T08:37:45.071Z,51.93
2016-11-12T08:38:25.707Z,51.93
2016-11-12T08:39:06.415Z,51.55
2016-11-12T08:39:47.233Z,51.93
2016-11-12T08:40:28.093Z,51.93
2016-11-12T08:41:08.687Z,51.93
2016-11-12T08:41:49.401Z,51.74
2016-11-12T08:42:30.002Z,52.03
2016-11-12T08:43:10.689Z,51.64
2016-11-12T08:43:52.111Z,51.55
2016-11-12T08:44:32.104Z,51.74
2016-11-12T08:45:12.798Z,51.74
2016-11-12T08:45:53.490Z,51.55
2016-11-12T08:46:34.158Z,51.64
2016-11-12T08:47:14.752Z,51.74
2016-11-12T08:47:55.307Z,51.45
2016-11-12T08:48:35.996Z,51.64
2016-11-12T08:49:16.739Z,51.93
2016-11-12T08:49:57.377Z,51.64
2016-11-12T08:50:38.093Z,51.84
2016-11-12T08:51:18.753Z,51.74
2016-11-12T08:51:59.431Z,52.03